createdAt,value
2022-09-06T00:01:17.133Z,100503.97
2022-09-06T00:05:19.143Z,100497.00
2022-09-06T00:09:20.709Z,100489.31
2022-09-06T00:13:22.375Z,100504.19
2022-09-06T00:17:24.077Z,100501.66
2022-09-06T00:21:28.313Z,100499.06
2022-09-06T00:25:30.653Z,100491.16
2022-09-06T00:29:32.618Z,100497.19
2022-09-06T00:33:34.202Z,100499.75
2022-09-06T00:37:35.768Z,100509.28
2022-09-06T00:41:37.381Z,100506.69
2022-09-06T00:45:39.454Z,100500.56
2022-09-06T00:49:45.325Z,100509.38
2022-09-06T00:53:47.044Z,100510.31
2022-09-06T00:57:52.234Z,100512.03
2022-09-06T01:01:53.894Z,100518.09
2022-09-06T01:06:14.103Z,100520.72
2022-09-06T01:10:37.477Z,100532.03
2022-09-06T01:14:45.400Z,100534.69
2022-09-06T01:19:10.781Z,100551.22
2022-09-06T01:23:55.106Z,100586.00
2022-09-06T01:28:15.154Z,100690.31
2022-09-06T01:32:39.072Z,100655.59
2022-09-06T01:37:13.469Z,100664.16
2022-09-06T01:41:15.100Z,100661.53
2022-09-06T01:45:33.027Z,100682.34
2022-09-06T01:49:58.112Z,100686.75
2022-09-06T01:54:27.513Z,100697.13
2022-09-06T01:58:38.894Z,100679.66
2022-09-06T02:02:52.858Z,100666.56
2022-09-06T02:07:00.791Z,100638.78
2022-09-06T02:11:04.713Z,100643.13
2022-09-06T02:15:11.590Z,100606.66
2022-09-06T02:19:27.893Z,100587.59
2022-09-06T02:23:33.828Z,100581.59
2022-09-06T02:27:35.764Z,100632.88
2022-09-06T02:31:48.534Z,100665.03
2022-09-06T02:35:53.062Z,100685.03
2022-09-06T02:39:56.074Z,100684.16
2022-09-06T02:43:57.829Z,100659.81
2022-09-06T02:47:59.531Z,100643.31
2022-09-06T02:52:01.138Z,100640.75
2022-09-06T02:56:03.088Z,100638.97
2022-09-06T03:00:04.993Z,100619.88
2022-09-06T03:04:06.631Z,100573.88
2022-09-06T03:08:08.253Z,100567.81
2022-09-06T03:12:09.860Z,100586.09
2022-09-06T03:16:11.516Z,100606.06
2022-09-06T03:20:13.672Z,100579.22
2022-09-06T03:24:15.230Z,100562.78
2022-09-06T03:28:18.388Z,100560.19
2022-09-06T03:32:20.069Z,100558.47
2022-09-06T03:36:22.280Z,100574.09
2022-09-06T03:40:23.919Z,100578.44
2022-09-06T03:44:25.560Z,100557.63
2022-09-06T03:48:29.788Z,100555.91
2022-09-06T03:52:31.449Z,100554.16
2022-09-06T03:56:33.058Z,100553.28
2022-09-06T04:00:34.788Z,100551.56
2022-09-06T04:04:36.426Z,100545.50
2022-09-06T04:08:38.558Z,100552.44
2022-09-06T04:12:40.128Z,100548.13
2022-09-06T04:16:41.762Z,100555.94
2022-09-06T04:20:45.935Z,100562.03
2022-09-06T04:24:47.537Z,100581.97
2022-09-06T04:28:49.194Z,100575.88
2022-09-06T04:32:50.820Z,100578.47
2022-09-06T04:36:52.392Z,100575.88
2022-09-06T04:40:55.553Z,100571.53
2022-09-06T04:44:57.167Z,100571.53
2022-09-06T04:48:58.831Z,100578.44
2022-09-06T04:53:00.384Z,100580.19
2022-09-06T04:57:02.267Z,100582.78
2022-09-06T05:01:03.950Z,100586.22
2022-09-06T05:05:06.223Z,100600.97
2022-09-06T05:14:50.629Z,100584.50
2022-09-06T05:18:52.195Z,100594.91
2022-09-06T05:22:54.367Z,100592.31
2022-09-06T05:26:56.018Z,100594.91
2022-09-06T05:31:11.918Z,100601.00
2022-09-06T05:35:13.680Z,100582.81
2022-09-06T05:39:15.237Z,100591.47
2022-09-06T05:43:16.878Z,100590.59
2022-09-06T05:47:18.530Z,100597.53
2022-09-06T05:51:20.287Z,100601.88
2022-09-06T05:55:21.861Z,100600.16
2022-09-06T05:59:23.421Z,100614.94
2022-09-06T06:03:24.996Z,100607.09
2022-09-06T06:07:26.598Z,100611.41
2022-09-06T06:11:28.533Z,100625.28
2022-09-06T06:15:30.126Z,100629.66
2022-09-06T06:19:31.714Z,100625.31
2022-09-06T06:23:33.273Z,100630.50
2022-09-06T06:27:37.049Z,100633.09
2022-09-06T06:31:39.130Z,100633.97
2022-09-06T06:35:40.840Z,100632.22
2022-09-06T06:39:42.496Z,100634.81
2022-09-06T06:43:44.269Z,100637.41
2022-09-06T06:47:49.989Z,100644.34
2022-09-06T06:51:51.616Z,100633.84
2022-09-06T06:55:53.431Z,100642.50
2022-09-06T06:59:54.998Z,100639.00
2022-09-06T07:03:57.202Z,100640.72
2022-09-06T07:07:58.801Z,100632.84
2022-09-06T07:12:00.432Z,100645.81
2022-09-06T07:16:08.665Z,100640.53
2022-09-06T07:24:14.477Z,100630.06
2022-09-06T07:28:16.077Z,100639.59
2022-09-06T07:32:17.692Z,100642.16
2022-09-06T07:36:19.620Z,100622.16
2022-09-06T07:40:21.294Z,100634.34
2022-09-06T07:44:22.935Z,100632.56
2022-09-06T07:48:24.458Z,100633.38
2022-09-06T07:56:48.595Z,100639.47
2022-09-06T08:00:50.354Z,100631.47
2022-09-06T08:04:52.003Z,100635.56
2022-09-06T08:08:57.638Z,100634.56
2022-09-06T08:12:59.769Z,100634.63
2022-09-06T08:17:02.078Z,100639.09
2022-09-06T08:21:14.992Z,100642.72
2022-09-06T08:25:16.540Z,100642.75
2022-09-06T08:29:19.910Z,100638.38
2022-09-06T08:33:21.978Z,100641.81
2022-09-06T08:37:25.207Z,100639.13
2022-09-06T08:41:48.683Z,100636.44
2022-09-06T08:45:56.304Z,100629.31
2022-09-06T08:50:03.407Z,100623.97
2022-09-06T08:54:12.017Z,100615.19
2022-09-06T08:58:37.190Z,100609.94
2022-09-06T09:03:19.886Z,100608.25
2022-09-06T09:07:48.049Z,100599.47
2022-09-06T09:11:51.292Z,100590.66
2022-09-06T09:15:52.936Z,100587.84
2022-09-06T09:19:56.382Z,100593.81
2022-09-06T09:24:04.734Z,100592.78
2022-09-06T09:28:16.069Z,100593.50
2022-09-06T09:32:39.190Z,100578.66
2022-09-06T09:36:41.231Z,100573.25
2022-09-06T09:40:52.137Z,100574.75
2022-09-06T09:44:53.901Z,100575.47
2022-09-06T09:49:10.550Z,100584.88
2022-09-06T09:53:17.943Z,100575.22
2022-09-06T09:57:19.831Z,100575.94
2022-09-06T10:01:32.989Z,100580.19
2022-09-06T10:05:34.767Z,100576.56
2022-09-06T10:09:39.596Z,100573.75
2022-09-06T10:13:44.586Z,100575.34
2022-09-06T10:17:51.378Z,100568.16
2022-09-06T10:21:59.854Z,100568.84
2022-09-06T10:26:20.054Z,100559.25
2022-09-06T10:30:22.430Z,100559.91
2022-09-06T10:34:54.462Z,100553.50
2022-09-06T10:39:04.251Z,100546.06
2022-09-06T10:43:09.272Z,100540.56
2022-09-06T10:47:13.563Z,100538.66
2022-09-06T10:51:38.712Z,100534.97
2022-09-06T10:55:43.582Z,100528.66
2022-09-06T10:59:56.630Z,100533.66
2022-09-06T11:04:04.430Z,100523.78
2022-09-06T11:13:03.162Z,100511.84
2022-09-06T11:17:26.357Z,100506.41
2022-09-06T11:22:12.834Z,100506.09
2022-09-06T11:26:31.542Z,100504.97
2022-09-06T11:30:33.702Z,100501.06
2022-09-06T11:34:36.263Z,100505.91
2022-09-06T11:38:37.871Z,100499.38
2022-09-06T11:42:45.645Z,100487.78
2022-09-06T11:46:48.410Z,100484.03
2022-09-06T11:50:59.072Z,100486.25
2022-09-06T11:55:00.803Z,100483.34
2022-09-06T11:59:34.750Z,100465.47
2022-09-06T12:04:05.178Z,100465.06
2022-09-06T12:08:11.035Z,100455.88
2022-09-06T12:12:38.410Z,100457.03
2022-09-06T12:16:58.944Z,100453.94
2022-09-06T12:21:01.541Z,100454.44
2022-09-06T12:25:42.049Z,100443.59
2022-09-06T12:29:54.552Z,100436.88
2022-09-06T12:33:58.020Z,100434.47
2022-09-06T12:38:01.958Z,100423.31
2022-09-06T12:42:11.817Z,100429.06
2022-09-06T12:46:13.539Z,100412.75
2022-09-06T12:50:18.287Z,100411.22
2022-09-06T12:54:26.197Z,100404.81
2022-09-06T12:58:28.899Z,100405.66
2022-09-06T13:02:39.023Z,100399.25
2022-09-06T13:06:45.752Z,100395.91
2022-09-06T13:10:48.084Z,100389.78
2022-09-06T13:14:53.801Z,100386.13
2022-09-06T13:19:10.046Z,100386.16
2022-09-06T13:23:19.809Z,100387.25
2022-09-06T13:27:27.606Z,100379.75
2022-09-06T13:31:30.005Z,100364.81
2022-09-06T13:35:37.844Z,100361.41
2022-09-06T13:39:41.677Z,100364.41
2022-09-06T13:43:45.756Z,100351.22
2022-09-06T13:47:47.383Z,100348.25
2022-09-06T13:51:49.545Z,100342.28
2022-09-06T13:55:52.660Z,100349.66
2022-09-06T13:59:54.192Z,100326.91
2022-09-06T14:03:55.797Z,100330.16
2022-09-06T14:07:57.565Z,100317.22
2022-09-06T14:11:59.344Z,100307.13
2022-09-06T14:16:01.288Z,100309.09
2022-09-06T14:20:03.551Z,100329.78
2022-09-06T14:24:05.566Z,100328.84
2022-09-06T14:28:07.167Z,100311.03
2022-09-06T14:32:08.835Z,100290.50
2022-09-06T14:36:13.389Z,100285.22
2022-09-06T14:40:15.656Z,100291.66
2022-09-06T14:44:17.325Z,100299.38
2022-09-06T14:48:19.014Z,100297.09
2022-09-06T14:52:20.703Z,100283.16
2022-09-06T14:56:22.995Z,100293.75
2022-09-06T15:00:24.638Z,100284.38
2022-09-06T15:04:26.441Z,100288.25
2022-09-06T15:08:28.137Z,100288.34
2022-09-06T15:12:29.731Z,100279.84
2022-09-06T15:16:32.612Z,100286.69
2022-09-06T15:20:34.953Z,100286.75
2022-09-06T15:24:36.764Z,100302.31
2022-09-06T15:28:39.891Z,100300.13
2022-09-06T15:32:42.876Z,100286.09
2022-09-06T15:36:44.621Z,100272.00
2022-09-06T15:40:46.237Z,100276.22
2022-09-06T15:44:47.801Z,100273.34
2022-09-06T15:48:52.291Z,100287.13
2022-09-06T15:52:53.863Z,100281.09
2022-09-06T15:56:58.042Z,100271.06
2022-09-06T16:01:12.383Z,100268.25
2022-09-06T16:05:14.720Z,100273.28
2022-09-06T16:09:18.192Z,100265.66
2022-09-06T16:13:19.788Z,100276.81
2022-09-06T16:17:21.882Z,100266.88
2022-09-06T16:21:25.933Z,100275.34
2022-09-06T16:25:28.194Z,100275.56
2022-09-06T16:29:30.096Z,100262.63
2022-09-06T16:33:33.658Z,100262.09
2022-09-06T16:37:36.061Z,100267.38
2022-09-06T16:41:40.743Z,100270.50
2022-09-06T16:45:42.581Z,100275.22
2022-09-06T16:49:44.315Z,100279.00
2022-09-06T16:53:47.560Z,100279.56
2022-09-06T16:57:49.324Z,100271.38
2022-09-06T17:01:51.600Z,100276.75
2022-09-06T17:05:53.940Z,100275.34
2022-09-06T17:09:55.552Z,100288.34
2022-09-06T17:13:57.746Z,100289.53
2022-09-06T17:17:59.353Z,100283.94
2022-09-06T17:22:00.923Z,100302.72
2022-09-06T17:26:04.117Z,100284.75
2022-09-06T17:30:06.237Z,100275.34
2022-09-06T17:34:08.051Z,100266.41
2022-09-06T17:38:10.123Z,100268.59
2022-09-06T17:42:11.745Z,100259.22
2022-09-06T17:46:13.429Z,100264.88
2022-09-06T17:50:15.305Z,100263.47
2022-09-06T17:54:17.131Z,100261.19
2022-09-06T17:58:20.001Z,100251.94
2022-09-06T18:02:21.659Z,100252.28
2022-09-06T18:06:25.359Z,100254.34
2022-09-06T18:10:26.963Z,100252.88
2022-09-06T18:14:28.715Z,100249.72
2022-09-06T18:18:32.644Z,100250.03
2022-09-06T18:22:34.307Z,100252.94
2022-09-06T18:26:37.305Z,100259.41
2022-09-06T18:30:39.021Z,100265.78
2022-09-06T18:34:40.944Z,100259.94
2022-09-06T18:38:43.374Z,100261.88
2022-09-06T18:42:45.033Z,100262.13
2022-09-06T18:46:46.854Z,100260.63
2022-09-06T18:50:48.458Z,100275.72
2022-09-06T18:54:50.127Z,100274.31
2022-09-06T18:59:00.943Z,100283.25
2022-09-06T19:03:02.659Z,100284.25
2022-09-06T19:07:04.289Z,100294.13
2022-09-06T19:11:09.127Z,100288.19
2022-09-06T19:15:11.052Z,100292.63
2022-09-06T19:19:13.395Z,100287.59
2022-09-06T19:23:15.694Z,100300.84
2022-09-06T19:27:17.349Z,100288.59
2022-09-06T19:31:19.507Z,100286.00
2022-09-06T19:35:21.773Z,100286.91
2022-09-06T19:39:23.448Z,100283.44
2022-09-06T19:43:25.142Z,100262.56
2022-09-06T19:47:26.768Z,100258.31
2022-09-06T19:51:28.429Z,100256.63
2022-09-06T19:55:34.207Z,100254.16
2022-09-06T19:59:36.625Z,100249.94
2022-09-06T20:03:39.394Z,100230.75
2022-09-06T20:07:41.038Z,100222.13
2022-09-06T20:11:43.302Z,100223.00
2022-09-06T20:15:44.890Z,100222.22
2022-09-06T20:19:46.525Z,100221.41
2022-09-06T20:23:55.871Z,100217.25
2022-09-06T20:27:58.554Z,100229.50
2022-09-06T20:32:00.274Z,100240.25
2022-09-06T20:36:07.149Z,100241.41
2022-09-06T20:40:09.432Z,100236.34
2022-09-06T20:44:11.110Z,100249.72
2022-09-06T20:48:12.714Z,100255.06
2022-09-06T20:52:14.557Z,100250.69
2022-09-06T20:56:19.276Z,100244.69
2022-09-06T21:00:20.938Z,100246.53
2022-09-06T21:04:22.604Z,100241.38
2022-09-06T21:08:24.279Z,100253.88
2022-09-06T21:12:25.931Z,100232.44
2022-09-06T21:16:29.152Z,100238.63
2022-09-06T21:20:31.077Z,100234.25
2022-09-06T21:24:33.891Z,100235.97
2022-09-06T21:28:37.809Z,100238.56
2022-09-06T21:32:39.467Z,100250.84
2022-09-06T21:36:41.327Z,100251.75
2022-09-06T21:40:43.333Z,100250.16
2022-09-06T21:44:45.043Z,100251.06
2022-09-06T21:48:48.873Z,100265.97
2022-09-06T21:52:52.305Z,100265.13
2022-09-06T21:56:54.627Z,100271.31
2022-09-06T22:01:00.558Z,100271.50
2022-09-06T22:05:06.388Z,100256.72
2022-09-06T22:09:11.675Z,100263.66
2022-09-06T22:13:13.333Z,100254.06
2022-09-06T22:17:14.949Z,100251.50
2022-09-06T22:21:20.108Z,100241.13
2022-09-06T22:25:21.740Z,100228.06
2022-09-06T22:29:23.442Z,100230.69
2022-09-06T22:33:25.336Z,100231.47
2022-09-06T22:37:26.938Z,100233.28
2022-09-06T22:41:30.965Z,100242.88
2022-09-06T22:45:33.033Z,100237.72
2022-09-06T22:49:34.656Z,100223.72
2022-09-06T22:53:36.250Z,100217.50
2022-09-06T22:57:37.828Z,100214.94
2022-09-06T23:01:39.408Z,100223.69
2022-09-06T23:05:41.098Z,100216.75
2022-09-06T23:09:42.731Z,100194.22
2022-09-06T23:13:47.023Z,100185.63
2022-09-06T23:17:48.703Z,100186.53
2022-09-06T23:21:50.325Z,100184.81
2022-09-06T23:25:53.520Z,100189.22
2022-09-06T23:29:55.120Z,100171.94
2022-09-06T23:33:58.057Z,100187.59
2022-09-06T23:37:59.740Z,100196.22
2022-09-06T23:42:02.343Z,100205.81
2022-09-06T23:46:04.003Z,100194.50
2022-09-06T23:50:07.203Z,100196.19
2022-09-06T23:54:08.822Z,100213.59
2022-09-06T23:58:11.163Z,100213.59
